Pembroke Park, Florida
Current Conditions -  °F | °C
As of 3:53 AM on Friday 24 Oct 2014 (Local Time) from KHWO Reporting Station
Overcast Overcast  
Wind Chill: 78°   Ceiling: 4000
Heat Index: 80°   Visibility: 10mi
Dew Point: 68°   Wind: 15mph
Humidity: 71%   Direction: 50°NE
Pressure: 29.85"   Gusts: NA
Location:  25.9859°N, 80.1469°W
Report Text: KHWO 240753Z AUTO 05013KT 10SM OVC040 26/20 A2985 RMK AO2 SLP108 T02560200
Loading
Personal Weather Stations






























Interactive Weather Map
Tropical Storm Tracking
New forecast layout! Learn more

10-Day Weather Forecast

Advertisements
Track Severe Weather on mobile